Time;durP1;ratioP1;P1;durP2;ratioP2;P2;SDS_P1;SDS_P2;PMS_P1;PMS_P2;Temp;Humidity;BMP_temperature;BMP_pressure;BME280_temperature;BME280_humidity;BME280_pressure;Samples;Min_cycle;Max_cycle;Signal;HPM_P1;HPM_P2
2022/01/13 00:02:02;;;;;;;40.67;19.33;;;;;;;-3.03;70.95;96587.94;5002009;28;20113;-80
2022/01/13 00:04:28;;;;;;;46.77;21.00;;;;;;;-3.35;70.36;96521.94;5002259;28;20544;-81
2022/01/13 00:06:53;;;;;;;45.10;20.35;;;;;;;-3.23;69.95;96551.84;5002634;28;20305;-81
2022/01/13 00:09:19;;;;;;;44.35;20.25;;;;;;;-4.17;69.78;96417.94;5020392;28;20461;-81
2022/01/13 00:11:49;;;;;;;42.50;20.23;;;;;;;-3.65;70.19;96510.25;5002107;28;20034;-80
2022/01/13 00:17:05;;;;;;;44.33;21.20;;;;;;;-3.94;71.17;96515.75;5019176;28;20460;-81
2022/01/13 00:24:54;;;;;;;50.30;21.58;;;;;;;-3.61;70.46;96594.56;5020280;28;20041;-80
2022/01/13 00:27:22;;;;;;;44.67;19.55;;;;;;;-3.59;71.14;96633.31;5020094;28;20037;-81
2022/01/13 00:29:48;;;;;;;48.25;21.15;;;;;;;-4.37;70.79;96508.78;5000485;28;20472;-81
2022/01/13 00:32:15;;;;;;;54.03;20.60;;;;;;;-4.02;71.49;96595.19;5019294;28;20068;-81
2022/01/13 00:34:42;;;;;;;50.83;23.92;;;;;;;-4.10;71.47;96579.56;5015099;28;20042;-81
2022/01/13 00:37:08;;;;;;;47.70;21.85;;;;;;;-3.78;71.19;96630.88;5014402;28;20102;-81
2022/01/13 00:39:34;;;;;;;42.92;19.98;;;;;;;-3.68;70.96;96629.03;5027711;28;20034;-81
2022/01/13 00:41:59;;;;;;;49.70;21.75;;;;;;;-4.76;70.33;96438.34;4995379;28;20053;-81
2022/01/13 00:44:25;;;;;;;53.33;23.38;;;;;;;-4.22;70.30;96539.31;5028307;28;20046;-81
2022/01/13 00:46:59;;;;;;;50.55;21.38;;;;;;;-3.62;71.17;96631.84;5028550;28;20034;-81
2022/01/13 00:49:25;;;;;;;54.78;21.63;;;;;;;-3.85;70.77;96620.28;5013843;28;20037;-81
2022/01/13 00:51:52;;;;;;;52.80;22.30;;;;;;;-3.60;70.32;96642.88;4996159;28;20073;-81
2022/01/13 00:54:18;;;;;;;52.17;22.45;;;;;;;-4.22;70.25;96549.69;5013146;28;20042;-82
2022/01/13 00:56:43;;;;;;;49.10;22.48;;;;;;;-3.99;69.93;96600.91;4996425;28;20029;-81
2022/01/13 00:59:11;;;;;;;50.22;22.30;;;;;;;-3.85;70.97;96635.84;4996024;28;20061;-80
2022/01/13 01:01:48;;;;;;;51.90;22.00;;;;;;;-4.20;70.18;96579.66;5028831;28;20060;-79
2022/01/13 01:04:14;;;;;;;49.33;21.60;;;;;;;-4.23;70.32;96582.53;5020400;28;20445;-80
2022/01/13 01:06:40;;;;;;;53.63;23.10;;;;;;;-5.26;70.42;96434.59;4998676;28;20033;-80
2022/01/13 01:09:12;;;;;;;57.15;23.52;;;;;;;-3.92;70.98;96627.03;4978844;28;20044;-80
2022/01/13 01:11:50;;;;;;;43.18;20.10;;;;;;;-4.63;71.25;96541.53;617880;28;10022903;-80
2022/01/13 01:14:17;;;;;;;58.63;22.58;;;;;;;-4.07;71.38;96655.25;5031290;28;20301;-80
2022/01/13 01:16:42;;;;;;;56.45;21.70;;;;;;;-3.82;70.70;96647.72;5016443;28;20034;-80
2022/01/13 01:19:10;;;;;;;52.63;23.02;;;;;;;-4.66;69.96;96518.53;4997976;28;20543;-80
2022/01/13 01:26:54;;;;;;;50.60;21.88;;;;;;;-4.47;70.76;96588.28;5015537;28;20422;-80
2022/01/13 01:29:26;;;;;;;50.58;21.05;;;;;;;-4.80;70.89;96543.13;5014914;28;20057;-80
2022/01/13 01:31:55;;;;;;;60.28;23.02;;;;;;;-4.82;71.24;96570.13;5029449;28;20034;-79
2022/01/13 01:37:16;;;;;;;51.80;22.77;;;;;;;-4.80;71.86;96563.00;5014414;28;20083;-79
2022/01/13 01:39:44;;;;;;;59.22;24.15;;;;;;;-4.41;71.98;96652.44;5014813;28;20057;-80
2022/01/13 01:42:10;;;;;;;64.05;25.58;;;;;;;-4.88;72.10;96568.91;4996348;28;20038;-80
2022/01/13 01:44:40;;;;;;;62.90;23.58;;;;;;;-4.25;71.76;96635.44;4996888;28;20046;-80
2022/01/13 01:47:08;;;;;;;60.85;24.13;;;;;;;-4.89;71.78;96582.81;5014139;28;20057;-79
2022/01/13 01:49:39;;;;;;;61.95;23.80;;;;;;;-4.55;71.59;96616.69;4996738;28;20045;-80
2022/01/13 01:52:06;;;;;;;65.40;23.63;;;;;;;-4.13;71.15;96667.97;4997392;28;20495;-80
2022/01/13 01:54:32;;;;;;;60.58;23.73;;;;;;;-5.16;71.16;96525.88;5014759;28;20057;-80
2022/01/13 01:56:58;;;;;;;54.28;22.20;;;;;;;-4.42;71.65;96650.81;5015657;28;20038;-80
2022/01/13 01:59:28;;;;;;;57.15;23.35;;;;;;;-4.62;71.61;96618.22;5030634;28;20030;-80
2022/01/13 02:01:54;;;;;;;58.42;23.92;;;;;;;-4.57;70.83;96617.78;4998004;28;20025;-79
2022/01/13 02:04:21;;;;;;;55.45;23.15;;;;;;;-4.49;71.36;96647.16;4997037;28;20038;-79
2022/01/13 02:06:47;;;;;;;60.47;23.83;;;;;;;-4.41;71.29;96643.84;5000272;28;20022;-80
2022/01/13 02:09:16;;;;;;;54.83;22.55;;;;;;;-4.29;70.89;96640.13;5021753;28;20040;-80
2022/01/13 02:11:44;;;;;;;58.55;24.58;;;;;;;-4.96;70.20;96513.69;5019632;28;20119;-80
2022/01/13 02:14:33;;;;;;;52.67;22.65;;;;;;;-5.27;70.42;96506.22;4999914;28;20053;-80
2022/01/13 02:17:03;;;;;;;54.67;22.40;;;;;;;-4.71;70.86;96616.50;5006417;28;20026;-80
2022/01/13 02:19:30;;;;;;;54.53;22.38;;;;;;;-4.51;71.29;96643.13;5036614;28;20029;-79
2022/01/13 02:21:56;;;;;;;55.10;21.73;;;;;;;-4.70;70.85;96598.25;5023443;28;20505;-79
2022/01/13 02:24:22;;;;;;;58.95;22.55;;;;;;;-5.04;70.49;96557.56;5006295;28;20068;-80
2022/01/13 02:26:47;;;;;;;56.97;22.50;;;;;;;-4.98;70.79;96557.81;5040616;28;20436;-80
2022/01/13 02:29:13;;;;;;;62.97;24.08;;;;;;;-4.55;71.14;96631.41;5009336;28;20030;-81
2022/01/13 02:31:38;;;;;;;54.75;22.23;;;;;;;-4.75;70.97;96621.16;5028083;28;20105;-80
2022/01/13 02:34:04;;;;;;;59.20;21.98;;;;;;;-4.39;70.85;96647.13;5011141;28;20034;-80
2022/01/13 02:36:30;;;;;;;53.15;22.73;;;;;;;-4.91;70.70;96589.09;5028646;28;20040;-80
2022/01/13 02:38:57;;;;;;;56.33;22.38;;;;;;;-4.46;70.73;96657.25;5041811;28;20124;-78
2022/01/13 02:41:23;;;;;;;61.22;24.48;;;;;;;-5.19;70.44;96570.16;5016482;28;20089;-78
2022/01/13 02:43:53;;;;;;;59.22;23.75;;;;;;;-4.90;71.16;96624.38;5031002;28;20058;-79
2022/01/13 02:49:06;;;;;;;57.45;24.45;;;;;;;-5.78;70.16;96480.81;5016715;28;20036;-78
2022/01/13 02:51:32;;;;;;;58.92;23.20;;;;;;;-4.92;70.25;96621.09;5015477;28;20092;-79
2022/01/13 02:53:58;;;;;;;56.03;23.38;;;;;;;-4.58;70.27;96658.41;4997491;28;20042;-79
2022/01/13 02:56:24;;;;;;;66.07;23.30;;;;;;;-4.63;70.12;96663.19;4997597;28;20578;-79
2022/01/13 02:58:49;;;;;;;59.20;22.98;;;;;;;-4.77;70.52;96623.06;4997273;28;20042;-79
2022/01/13 03:01:15;;;;;;;58.13;23.42;;;;;;;-5.58;70.01;96528.13;5015957;28;20117;-79
2022/01/13 03:03:41;;;;;;;54.58;21.60;;;;;;;-5.15;70.85;96582.66;5018534;28;20489;-79
2022/01/13 03:06:12;;;;;;;56.88;21.80;;;;;;;-5.27;70.80;96599.31;4999940;28;20061;-80
2022/01/13 03:08:41;;;;;;;54.92;22.40;;;;;;;-5.35;70.86;96606.97;5018028;28;20037;-78
2022/01/13 03:11:24;;;;;;;47.85;20.95;;;;;;;-4.95;70.94;96645.47;1737854;28;10022936;-79
2022/01/13 03:13:49;;;;;;;50.40;21.25;;;;;;;-4.95;70.51;96623.97;3979874;28;10001022;-79
2022/01/13 03:16:15;;;;;;;53.95;21.77;;;;;;;-4.78;70.42;96636.16;5034186;28;20125;-80
2022/01/13 03:18:41;;;;;;;53.85;22.42;;;;;;;-4.74;69.66;96640.09;5005568;28;20045;-80
2022/01/13 03:21:08;;;;;;;55.92;21.52;;;;;;;-5.11;69.90;96601.31;5034819;28;20505;-79
2022/01/13 03:23:35;;;;;;;47.92;20.35;;;;;;;-4.86;69.00;96638.63;5000502;28;20539;-79
2022/01/13 03:26:02;;;;;;;46.50;21.13;;;;;;;-6.17;69.45;96438.00;5000842;28;20108;-79
2022/01/13 03:28:30;;;;;;;48.75;20.35;;;;;;;-5.06;68.79;96594.75;5017941;28;20052;-80
2022/01/13 03:31:00;;;;;;;48.72;21.05;;;;;;;-4.69;68.78;96630.13;5029212;28;20057;-77
2022/01/13 03:33:26;;;;;;;51.60;21.95;;;;;;;-4.48;68.49;96648.00;4994949;28;20129;-78
2022/01/13 03:35:51;;;;;;;51.97;21.02;;;;;;;-4.73;67.69;96621.03;4995537;28;20117;-78
2022/01/13 03:38:17;;;;;;;48.55;21.02;;;;;;;-4.85;68.59;96663.56;5014027;28;20423;-78
2022/01/13 03:40:42;;;;;;;44.95;19.33;;;;;;;-5.33;68.89;96568.00;4996309;28;20062;-78
2022/01/13 03:43:08;;;;;;;51.83;20.70;;;;;;;-5.18;68.58;96601.03;4994826;28;20025;-79
2022/01/13 03:45:33;;;;;;;51.50;21.17;;;;;;;-5.45;68.05;96563.03;5017179;28;20041;-80
2022/01/13 03:48:00;;;;;;;51.85;20.02;;;;;;;-5.30;68.34;96573.72;5031550;28;20033;-81
2022/01/13 03:50:25;;;;;;;50.30;21.15;;;;;;;-5.12;68.89;96618.59;5017811;28;20089;-79
2022/01/13 03:52:57;;;;;;;44.13;19.13;;;;;;;-4.75;68.33;96654.81;5016857;28;20026;-78
2022/01/13 03:55:34;;;;;;;54.83;20.80;;;;;;;-4.62;68.01;96651.88;5029706;28;20037;-79
2022/01/13 03:58:54;;;;;;;51.92;21.80;;;;;;;-4.58;67.88;96655.84;5029609;28;20045;-79
2022/01/13 04:01:37;;;;;;;50.00;18.00;;;;;;;-4.50;67.34;96653.31;4918925;29;20472;-79
2022/01/13 04:04:03;;;;;;;48.80;19.52;;;;;;;-4.73;67.03;96646.91;4934369;29;20099;-79
2022/01/13 04:06:42;;;;;;;47.97;18.45;;;;;;;-4.50;67.14;96660.28;4980435;28;20119;-79
2022/01/13 04:09:23;;;;;;;42.28;20.08;;;;;;;-5.08;68.19;96668.25;5014635;28;20479;-79
2022/01/13 04:11:51;;;;;;;47.97;19.13;;;;;;;-5.08;68.78;96676.03;5014098;28;20030;-79
2022/01/13 04:14:19;;;;;;;45.92;18.55;;;;;;;-5.54;68.47;96599.25;4996162;28;20141;-79
2022/01/13 04:16:45;;;;;;;48.78;20.88;;;;;;;-5.61;68.69;96606.75;5014424;28;20034;-79
2022/01/13 04:19:10;;;;;;;46.97;19.80;;;;;;;-5.24;68.73;96663.66;5028979;28;20052;-79
2022/01/13 04:21:38;;;;;;;51.15;19.40;;;;;;;-5.02;68.25;96687.56;5014378;28;20030;-79
2022/01/13 04:24:06;;;;;;;49.05;19.20;;;;;;;-5.59;67.58;96615.19;4997119;28;20471;-79
2022/01/13 04:26:33;;;;;;;42.40;17.33;;;;;;;-5.84;68.59;96600.25;5015115;28;20134;-79
2022/01/13 04:29:18;;;;;;;42.80;18.35;;;;;;;-5.38;68.61;96664.13;5014187;28;20026;-79
2022/01/13 04:31:46;;;;;;;46.88;19.02;;;;;;;-5.33;67.40;96651.56;4998847;28;20029;-80
2022/01/13 04:34:12;;;;;;;42.25;18.52;;;;;;;-5.45;68.18;96647.53;5017533;28;20400;-79
2022/01/13 04:36:38;;;;;;;45.80;20.20;;;;;;;-5.63;67.69;96615.56;5018102;28;20118;-79
2022/01/13 04:39:05;;;;;;;57.22;21.20;;;;;;;-5.59;67.46;96591.09;5032688;28;20061;-80
2022/01/13 04:41:35;;;;;;;45.53;18.30;;;;;;;-4.95;66.87;96681.69;4999525;28;20497;-80
2022/01/13 04:44:06;;;;;;;40.28;18.08;;;;;;;-4.92;67.19;96696.94;4998395;28;20061;-80
2022/01/13 04:46:31;;;;;;;51.40;20.17;;;;;;;-5.42;67.59;96618.00;5017377;28;20037;-79
2022/01/13 04:48:59;;;;;;;47.00;18.70;;;;;;;-4.81;66.43;96704.56;5016130;28;20114;-79
2022/01/13 04:51:25;;;;;;;42.90;18.45;;;;;;;-5.17;67.29;96680.25;5015586;28;20551;-79
2022/01/13 04:53:51;;;;;;;43.30;18.10;;;;;;;-5.04;66.41;96667.03;5015736;28;20045;-79
2022/01/13 04:56:27;;;;;;;38.33;17.33;;;;;;;-5.64;66.67;96609.59;5016942;28;20038;-79
2022/01/13 04:58:53;;;;;;;44.13;18.42;;;;;;;-5.69;67.28;96616.94;5032431;28;20109;-80
2022/01/13 05:01:19;;;;;;;48.00;18.08;;;;;;;-5.13;66.84;96697.16;5031863;28;20417;-80
2022/01/13 05:03:44;;;;;;;44.70;17.60;;;;;;;-5.57;66.75;96620.22;4997910;28;20046;-80
2022/01/13 05:06:10;;;;;;;45.78;19.15;;;;;;;-5.34;66.64;96626.66;4998211;28;20033;-80
2022/01/13 05:08:35;;;;;;;40.42;16.58;;;;;;;-5.21;66.29;96678.09;4997611;28;20129;-79
2022/01/13 05:11:01;;;;;;;42.70;17.48;;;;;;;-5.33;66.48;96632.66;4929212;28;20058;-79
2022/01/13 05:13:26;;;;;;;40.38;16.70;;;;;;;-5.36;66.51;96669.16;330624;28;10024028;-80
2022/01/13 05:15:54;;;;;;;42.15;16.42;;;;;;;-5.84;66.44;96605.41;5016292;28;20480;-79
2022/01/13 05:20:48;;;;;;;38.17;16.98;;;;;;;-5.28;65.69;96674.44;5015877;28;20044;-79
2022/01/13 05:23:15;;;;;;;43.35;16.98;;;;;;;-5.37;65.55;96663.16;4997934;28;20038;-80
2022/01/13 05:25:42;;;;;;;39.72;16.98;;;;;;;-5.32;65.65;96670.50;4997579;28;20037;-80
2022/01/13 05:28:08;;;;;;;42.95;16.70;;;;;;;-5.06;65.94;96728.44;5014532;28;20026;-80
2022/01/13 05:30:34;;;;;;;35.58;16.90;;;;;;;-5.42;66.66;96721.41;5015145;28;20120;-80
2022/01/13 05:33:00;;;;;;;36.33;15.77;;;;;;;-5.51;66.16;96681.69;5014913;28;20072;-80
2022/01/13 05:35:27;;;;;;;38.17;14.88;;;;;;;-5.41;65.70;96694.59;5017849;28;20061;-79
2022/01/13 05:37:55;;;;;;;45.30;16.17;;;;;;;-5.75;65.28;96650.28;5016022;28;20065;-79
2022/01/13 05:40:22;;;;;;;44.15;17.45;;;;;;;-6.32;65.71;96570.09;5016482;28;20053;-80
2022/01/13 05:42:49;;;;;;;44.90;18.40;;;;;;;-6.03;64.98;96621.78;5003678;28;20044;-80
2022/01/13 05:45:16;;;;;;;42.08;15.27;;;;;;;-6.00;65.02;96615.50;5024801;28;20410;-80
2022/01/13 05:47:44;;;;;;;33.67;14.43;;;;;;;-5.84;64.29;96650.16;5023228;28;20037;-80
2022/01/13 05:50:11;;;;;;;41.10;14.52;;;;;;;-5.46;65.00;96749.31;5024246;28;20057;-79
2022/01/13 05:52:37;;;;;;;41.20;16.70;;;;;;;-5.67;64.94;96696.94;5025968;28;20036;-79
2022/01/13 05:55:04;;;;;;;36.97;15.93;;;;;;;-5.27;65.04;96740.72;5004632;28;20438;-79
2022/01/13 05:57:30;;;;;;;44.17;15.70;;;;;;;-6.11;64.29;96613.06;5002584;28;20393;-79
2022/01/13 05:59:55;;;;;;;43.25;15.32;;;;;;;-5.76;64.37;96687.41;5004452;28;20487;-79
2022/01/13 06:02:21;;;;;;;38.53;15.27;;;;;;;-5.73;65.20;96731.91;5021869;28;20091;-79
2022/01/13 06:04:46;;;;;;;48.47;16.73;;;;;;;-5.58;65.40;96751.22;5021347;28;20046;-80
2022/01/13 06:07:12;;;;;;;33.80;14.27;;;;;;;-5.70;65.16;96735.97;5005651;28;20030;-79
2022/01/13 06:09:37;;;;;;;35.28;14.25;;;;;;;-5.82;64.42;96704.28;5004063;28;20519;-79
2022/01/13 06:12:04;;;;;;;39.33;15.20;;;;;;;-5.87;64.02;96696.91;5005031;28;20026;-79
2022/01/13 06:14:30;;;;;;;34.00;13.88;;;;;;;-5.49;65.09;96746.97;5004986;28;20033;-80
2022/01/13 06:16:55;;;;;;;32.83;14.32;;;;;;;-6.02;65.04;96672.47;5004235;28;20512;-80
2022/01/13 06:19:21;;;;;;;36.58;15.40;;;;;;;-5.40;64.47;96792.72;5037393;28;20038;-79
2022/01/13 06:21:47;;;;;;;37.95;15.43;;;;;;;-5.78;64.61;96708.22;4987248;28;20038;-80
2022/01/13 06:24:12;;;;;;;40.80;16.00;;;;;;;-6.26;64.12;96620.41;5004094;28;20042;-79
2022/01/13 06:26:38;;;;;;;36.95;15.60;;;;;;;-5.86;64.82;96708.06;5004842;28;20130;-79
2022/01/13 06:29:04;;;;;;;34.33;15.95;;;;;;;-6.26;64.25;96643.66;5021897;28;20026;-79
2022/01/13 06:31:30;;;;;;;29.90;13.73;;;;;;;-5.71;64.43;96773.09;5022173;28;20044;-79
2022/01/13 06:33:55;;;;;;;36.92;15.18;;;;;;;-5.49;64.33;96783.16;5003697;28;20109;-79
2022/01/13 06:36:21;;;;;;;41.05;16.02;;;;;;;-5.82;63.99;96716.38;5003189;28;20087;-79
2022/01/13 06:38:48;;;;;;;43.88;15.77;;;;;;;-5.98;63.77;96660.91;5021555;28;20417;-80
2022/01/13 06:41:15;;;;;;;31.33;13.60;;;;;;;-6.01;63.41;96668.09;5025941;28;20041;-79
2022/01/13 06:43:41;;;;;;;35.70;15.95;;;;;;;-5.74;63.29;96743.19;4982493;28;20145;-79
2022/01/13 06:46:06;;;;;;;40.70;16.05;;;;;;;-5.91;63.69;96729.19;4999691;28;20061;-80
2022/01/13 06:48:32;;;;;;;36.53;15.55;;;;;;;-5.63;63.84;96783.56;5000380;28;20042;-79
2022/01/13 06:50:58;;;;;;;44.28;18.95;;;;;;;-5.57;64.08;96804.53;4998495;28;20061;-79
2022/01/13 06:53:24;;;;;;;42.97;15.18;;;;;;;-6.09;64.10;96748.03;4995746;28;20038;-79
2022/01/13 06:55:51;;;;;;;37.88;17.15;;;;;;;-5.87;64.14;96802.84;4995888;28;20038;-78
2022/01/13 06:58:17;;;;;;;37.35;17.33;;;;;;;-6.36;64.64;96733.97;5029455;28;20061;-79
2022/01/13 07:00:42;;;;;;;38.35;16.20;;;;;;;-6.90;65.07;96625.97;4997150;28;20113;-79
2022/01/13 07:03:09;;;;;;;44.47;15.48;;;;;;;-6.83;64.73;96623.66;4995172;28;20045;-79
2022/01/13 07:05:34;;;;;;;40.22;15.30;;;;;;;-6.48;64.42;96703.25;4996652;28;20034;-79
2022/01/13 07:08:00;;;;;;;36.78;15.38;;;;;;;-6.04;64.72;96772.53;4996377;28;20041;-79
2022/01/13 07:10:26;;;;;;;37.53;14.75;;;;;;;-5.95;64.24;96815.63;4995490;28;20092;-79
2022/01/13 07:12:51;;;;;;;47.63;15.02;;;;;;;-6.63;63.92;96671.78;4996933;28;20096;-79
2022/01/13 07:15:17;;;;;;;37.42;14.75;;;;;;;-6.05;63.93;96796.72;4997523;28;20038;-80
2022/01/13 07:17:43;;;;;;;36.17;13.98;;;;;;;-6.53;63.77;96707.97;4998769;28;20065;-79
2022/01/13 07:20:09;;;;;;;43.50;14.50;;;;;;;-6.08;63.63;96791.00;4994659;28;20046;-79
2022/01/13 07:22:37;;;;;;;31.65;13.95;;;;;;;-5.97;63.47;96830.47;4996994;28;20125;-79
2022/01/13 07:25:03;;;;;;;31.38;13.45;;;;;;;-6.03;63.46;96830.19;4994944;28;20516;-79
2022/01/13 07:27:28;;;;;;;37.65;13.85;;;;;;;-6.27;63.88;96781.44;4995068;28;20544;-79
2022/01/13 07:29:55;;;;;;;35.72;14.60;;;;;;;-6.48;63.29;96775.50;4997607;28;20030;-79
2022/01/13 07:32:20;;;;;;;31.53;12.27;;;;;;;-6.82;63.87;96721.56;4996753;28;20049;-79
2022/01/13 07:34:45;;;;;;;38.35;14.70;;;;;;;-6.38;63.58;96774.59;4996943;28;20046;-79
2022/01/13 07:37:11;;;;;;;31.55;13.63;;;;;;;-5.88;64.00;96834.84;4996852;28;20038;-79
2022/01/13 07:39:36;;;;;;;35.35;15.25;;;;;;;-6.36;63.64;96771.88;4996840;28;20034;-79
2022/01/13 07:42:03;;;;;;;42.70;14.50;;;;;;;-6.15;63.37;96782.94;4995110;28;20482;-79
2022/01/13 07:44:29;;;;;;;49.60;15.27;;;;;;;-5.74;63.45;96863.81;5010079;28;20521;-80
2022/01/13 07:46:56;;;;;;;34.00;13.43;;;;;;;-5.94;63.10;96809.50;4998347;28;20200;-79
2022/01/13 07:49:22;;;;;;;33.55;14.65;;;;;;;-6.34;62.64;96781.13;5013007;28;20056;-79
2022/01/13 07:51:47;;;;;;;41.47;15.50;;;;;;;-6.36;62.85;96784.78;5016374;28;20034;-79
2022/01/13 07:54:13;;;;;;;37.20;13.90;;;;;;;-6.11;63.00;96874.75;5030467;28;20033;-80
2022/01/13 07:56:38;;;;;;;36.00;14.03;;;;;;;-6.88;63.52;96732.41;5030279;28;20478;-79
2022/01/13 07:59:04;;;;;;;32.33;14.27;;;;;;;-6.12;63.17;96867.09;5030530;28;20038;-79
2022/01/13 08:01:29;;;;;;;38.47;15.40;;;;;;;-6.27;63.78;96845.97;4997748;28;20609;-79
2022/01/13 08:03:55;;;;;;;49.93;16.90;;;;;;;-5.93;62.92;96849.91;4998507;28;20512;-79
2022/01/13 08:06:20;;;;;;;38.20;14.13;;;;;;;-6.33;62.50;96800.03;5016607;28;20033;-79
2022/01/13 08:08:46;;;;;;;29.23;12.77;;;;;;;-6.11;62.41;96861.81;4999677;28;20480;-79
2022/01/13 08:11:11;;;;;;;36.38;14.02;;;;;;;-6.21;62.75;96879.03;5000312;28;20034;-79
2022/01/13 08:13:37;;;;;;;35.80;14.60;;;;;;;-6.44;62.90;96834.47;5031697;28;20105;-80
2022/01/13 08:16:08;;;;;;;33.70;15.23;;;;;;;-6.36;63.38;96864.81;5034250;28;20036;-79
2022/01/13 08:21:20;;;;;;;29.97;12.77;;;;;;;-6.11;62.09;96895.41;5014817;28;20064;-79
2022/01/13 08:23:45;;;;;;;32.37;13.97;;;;;;;-6.20;62.13;96901.31;4996876;28;20144;-79
2022/01/13 08:26:11;;;;;;;38.10;14.53;;;;;;;-6.10;62.88;96904.75;4997369;28;20061;-79
2022/01/13 08:28:37;;;;;;;34.20;14.17;;;;;;;-5.89;62.31;96930.56;4997438;28;20029;-79
2022/01/13 08:31:04;;;;;;;31.57;13.33;;;;;;;-6.01;62.15;96910.91;4997327;28;20029;-79
2022/01/13 08:33:30;;;;;;;36.53;14.33;;;;;;;-6.45;61.34;96863.81;4996933;28;20034;-79
2022/01/13 08:35:57;;;;;;;32.23;12.73;;;;;;;-6.27;61.12;96910.53;5014271;28;20038;-80
2022/01/13 08:38:24;;;;;;;30.27;13.05;;;;;;;-7.05;61.71;96764.75;4983383;28;20033;-79
2022/01/13 08:40:53;;;;;;;31.17;11.73;;;;;;;-6.43;61.98;96843.88;5002139;28;20488;-80
2022/01/13 08:43:21;;;;;;;31.23;12.50;;;;;;;-6.53;61.72;96837.81;4998305;28;20062;-79
2022/01/13 08:45:47;;;;;;;26.43;12.73;;;;;;;-6.09;61.66;96884.91;4995518;28;20476;-79
2022/01/13 08:48:13;;;;;;;36.50;13.87;;;;;;;-6.42;61.01;96840.34;4999921;28;20070;-81
2022/01/13 08:50:39;;;;;;;30.90;13.13;;;;;;;-6.47;61.62;96808.91;4996630;28;20108;-80
2022/01/13 08:53:05;;;;;;;38.00;12.63;;;;;;;-6.15;60.49;96881.09;5028218;28;20042;-79
2022/01/13 08:55:31;;;;;;;31.58;12.93;;;;;;;-5.66;61.49;96924.25;4996585;28;20116;-80
2022/01/13 08:57:56;;;;;;;37.70;14.27;;;;;;;-5.40;60.86;96919.41;5026732;28;20081;-80
2022/01/13 09:00:22;;;;;;;34.95;13.13;;;;;;;-5.79;59.58;96856.44;5027463;28;20401;-80
2022/01/13 09:02:48;;;;;;;30.55;11.75;;;;;;;-5.66;59.72;96905.34;4996734;28;20053;-81
2022/01/13 09:05:16;;;;;;;27.65;12.75;;;;;;;-5.71;59.99;96925.56;4996686;28;20042;-81
2022/01/13 09:07:42;;;;;;;27.43;12.77;;;;;;;-6.66;59.77;96750.31;4995261;28;20057;-80
2022/01/13 09:10:08;;;;;;;29.83;13.65;;;;;;;-6.44;59.77;96782.03;4995313;28;20468;-80
2022/01/13 09:12:34;;;;;;;32.72;12.95;;;;;;;-6.30;60.94;96841.06;4999885;28;20045;-80
2022/01/13 09:15:14;;;;;;;33.10;12.85;;;;;;;-6.38;60.31;96846.03;4995420;28;20034;-80
2022/01/13 09:17:42;;;;;;;31.15;12.80;;;;;;;-6.95;60.26;96777.72;4995640;28;20034;-80
2022/01/13 09:20:08;;;;;;;31.90;13.70;;;;;;;-6.10;61.09;96884.09;4996643;28;20031;-80
2022/01/13 09:22:34;;;;;;;30.30;12.90;;;;;;;-6.22;60.93;96837.84;4993644;28;20045;-80
2022/01/13 09:24:59;;;;;;;37.58;15.07;;;;;;;-5.84;60.57;96898.19;4994367;28;20035;-80
2022/01/13 09:27:25;;;;;;;30.83;13.98;;;;;;;-5.70;60.53;96878.91;5028268;28;20037;-80
2022/01/13 09:29:50;;;;;;;34.70;12.63;;;;;;;-6.32;59.91;96854.09;4995777;28;20436;-79
2022/01/13 09:32:16;;;;;;;30.60;13.07;;;;;;;-6.07;60.66;96877.88;4995433;28;20069;-80
2022/01/13 09:34:43;;;;;;;28.80;11.97;;;;;;;-7.01;61.33;96742.09;5031897;28;20034;-80
2022/01/13 09:37:12;;;;;;;40.28;13.13;;;;;;;-5.99;60.86;96850.44;5029697;28;20038;-80
2022/01/13 09:39:38;;;;;;;27.48;11.90;;;;;;;-6.11;60.23;96838.56;4994100;28;20035;-80
2022/01/13 09:42:08;;;;;;;32.42;12.60;;;;;;;-6.84;61.27;96707.97;4993223;28;20101;-80
2022/01/13 09:44:34;;;;;;;32.60;12.02;;;;;;;-5.81;61.13;96889.38;4993107;28;20066;-80
2022/01/13 09:46:59;;;;;;;33.03;13.45;;;;;;;-6.22;60.66;96788.78;4995477;28;20515;-80
2022/01/13 09:49:25;;;;;;;29.50;12.23;;;;;;;-6.61;60.80;96739.56;5026302;28;20045;-80
2022/01/13 09:51:51;;;;;;;31.17;12.00;;;;;;;-5.74;61.29;96871.56;4995291;28;20034;-80
2022/01/13 09:54:17;;;;;;;32.63;13.32;;;;;;;-6.13;60.88;96793.16;5026850;28;20037;-80
2022/01/13 09:56:42;;;;;;;33.58;13.73;;;;;;;-5.96;60.13;96810.63;4993395;28;20522;-79
2022/01/13 09:59:08;;;;;;;32.38;13.15;;;;;;;-6.22;60.20;96752.63;4991932;28;20039;-79
2022/01/13 10:01:34;;;;;;;30.15;12.30;;;;;;;-5.93;59.89;96776.75;4992281;28;20081;-79
2022/01/13 10:03:59;;;;;;;35.80;13.70;;;;;;;-6.36;61.11;96709.91;4992458;28;20106;-79
2022/01/13 10:06:25;;;;;;;29.33;12.40;;;;;;;-5.68;60.87;96835.69;4993815;28;20113;-79
2022/01/13 10:08:53;;;;;;;36.22;13.63;;;;;;;-6.03;61.17;96779.34;4994484;28;20050;-79
2022/01/13 10:11:27;;;;;;;35.83;14.30;;;;;;;-5.56;60.51;96807.94;4994460;28;20489;-79
2022/01/13 10:16:55;;;;;;;38.33;12.85;;;;;;;-5.33;60.76;96827.41;4995518;28;20042;-80
2022/01/13 10:19:29;;;;;;;33.95;13.57;;;;;;;-5.18;59.92;96814.88;4996246;28;20073;-80
2022/01/13 10:22:09;;;;;;;33.70;13.82;;;;;;;-5.89;59.98;96722.13;5028716;28;20042;-80
2022/01/13 10:24:40;;;;;;;42.20;14.13;;;;;;;-5.88;59.94;96713.41;4995857;28;20103;-80
2022/01/13 10:27:13;;;;;;;28.05;13.43;;;;;;;-6.07;60.03;96666.06;4994381;28;20049;-81
2022/01/13 10:29:52;;;;;;;33.85;14.95;;;;;;;-5.18;59.59;96761.41;5000013;28;20165;-80
2022/01/13 10:32:23;;;;;;;39.50;15.70;;;;;;;-4.46;59.07;96773.78;5030969;28;20061;-81
2022/01/13 10:35:04;;;;;;;39.55;14.13;;;;;;;-4.10;57.39;96779.91;5002028;28;20061;-80
2022/01/13 10:37:36;;;;;;;33.17;14.38;;;;;;;-3.79;56.59;96780.41;4998886;28;20509;-80
2022/01/13 10:40:09;;;;;;;29.55;12.90;;;;;;;-3.88;56.58;96791.66;4995831;28;20030;-80
2022/01/13 10:45:17;;;;;;;34.17;13.82;;;;;;;-4.36;57.31;96681.34;4997752;28;20074;-79
2022/01/13 10:47:59;;;;;;;29.05;13.45;;;;;;;-4.48;55.83;96689.41;5031057;28;20038;-79
2022/01/13 10:50:34;;;;;;;31.65;13.80;;;;;;;-4.06;56.90;96703.53;4994102;28;20038;-79
2022/01/13 10:53:04;;;;;;;33.92;14.07;;;;;;;-3.69;56.39;96750.06;4995003;28;20041;-79
2022/01/13 10:55:36;;;;;;;36.55;14.07;;;;;;;-3.66;55.44;96695.31;4995085;28;20429;-79
2022/01/13 10:58:02;;;;;;;29.30;13.38;;;;;;;-3.17;53.50;96690.53;4996489;28;20425;-79
2022/01/13 11:00:32;;;;;;;35.72;14.18;;;;;;;-2.75;52.62;96742.56;5015154;28;20034;-80
2022/01/13 11:02:58;;;;;;;25.75;13.00;;;;;;;-3.33;52.68;96769.03;4998559;28;20033;-78
2022/01/13 11:05:24;;;;;;;26.40;12.23;;;;;;;-3.64;53.63;96695.97;4998964;28;20042;-78
2022/01/13 11:07:49;;;;;;;30.00;13.52;;;;;;;-3.60;53.48;96673.19;4997493;28;20046;-79
2022/01/13 11:10:14;;;;;;;29.15;13.52;;;;;;;-3.02;53.03;96777.25;4998118;28;20034;-79
2022/01/13 11:12:44;;;;;;;32.00;13.20;;;;;;;-3.44;53.79;96714.00;4999411;28;20069;-79
2022/01/13 11:15:18;;;;;;;34.40;14.13;;;;;;;-3.35;53.80;96706.09;4996706;28;20425;-80
2022/01/13 11:17:52;;;;;;;26.45;11.68;;;;;;;-3.59;53.64;96711.94;4998035;28;20042;-78
2022/01/13 11:20:20;;;;;;;31.67;12.48;;;;;;;-4.11;53.67;96596.91;4998766;28;20077;-80
2022/01/13 11:22:51;;;;;;;34.78;14.65;;;;;;;-3.23;54.50;96711.91;4997005;28;20047;-79
2022/01/13 11:25:27;;;;;;;32.08;13.93;;;;;;;-3.69;54.03;96682.66;5000960;28;20038;-84
2022/01/13 11:27:53;;;;;;;29.83;13.10;;;;;;;-3.31;53.72;96733.41;5004479;28;20522;-79
2022/01/13 11:30:22;;;;;;;33.28;13.65;;;;;;;-3.73;54.48;96646.78;4998409;28;20105;-79
2022/01/13 11:32:49;;;;;;;32.13;13.88;;;;;;;-3.46;53.82;96744.44;4998450;28;20109;-80
2022/01/13 11:35:39;;;;;;;28.98;12.00;;;;;;;-4.63;53.95;96536.34;4997974;28;20041;-80
2022/01/13 11:38:06;;;;;;;35.97;13.52;;;;;;;-3.42;54.32;96737.97;4994645;28;20116;-79
2022/01/13 11:40:39;;;;;;;36.78;13.27;;;;;;;-3.42;54.42;96736.22;4995641;28;20042;-80
2022/01/13 11:43:07;;;;;;;36.00;14.27;;;;;;;-3.82;54.44;96679.63;4998664;28;20042;-80
2022/01/13 11:45:40;;;;;;;32.20;13.40;;;;;;;-3.92;54.13;96661.56;4999030;28;20070;-80
2022/01/13 11:48:25;;;;;;;33.40;13.43;;;;;;;-4.25;53.67;96646.63;5029136;28;20034;-79
2022/01/13 11:50:55;;;;;;;30.08;12.95;;;;;;;-3.71;54.39;96741.63;4998992;28;20056;-80